createdAt,value
2022-11-15T00:00:02.163Z,91.33
2022-11-15T00:01:03.232Z,91.35
2022-11-15T00:02:02.163Z,91.43
2022-11-15T00:03:02.171Z,91.39
2022-11-15T00:04:02.102Z,91.40
2022-11-15T00:05:02.180Z,91.43
2022-11-15T00:06:02.082Z,91.50
2022-11-15T00:07:02.196Z,91.63
2022-11-15T00:08:02.079Z,91.66
2022-11-15T00:09:02.105Z,91.68
2022-11-15T00:10:02.023Z,91.64
2022-11-15T00:11:02.123Z,91.54
2022-11-15T00:12:01.995Z,91.57
2022-11-15T00:13:02.092Z,91.60
2022-11-15T00:14:01.974Z,91.61
2022-11-15T00:15:02.050Z,91.61
2022-11-15T00:16:01.949Z,91.64
2022-11-15T00:17:01.967Z,91.56
2022-11-15T00:18:01.925Z,91.56
2022-11-15T00:19:02.033Z,91.53
2022-11-15T00:20:01.894Z,91.44
2022-11-15T00:21:01.991Z,91.40
2022-11-15T00:22:01.864Z,91.46
2022-11-15T00:23:01.915Z,91.36
2022-11-15T00:24:01.844Z,91.37
2022-11-15T00:25:01.973Z,91.39
2022-11-15T00:26:01.822Z,91.47
2022-11-15T00:27:01.831Z,91.52
2022-11-15T00:28:01.791Z,91.40
2022-11-15T00:29:01.845Z,91.37
2022-11-15T00:30:01.763Z,91.41
2022-11-15T00:31:03.877Z,91.49
2022-11-15T00:32:01.731Z,91.47
2022-11-15T00:33:01.771Z,91.33
2022-11-15T00:34:01.710Z,91.31
2022-11-15T00:35:01.784Z,91.23
2022-11-15T00:36:01.691Z,91.16
2022-11-15T00:37:01.762Z,91.25
2022-11-15T00:38:01.664Z,91.33
2022-11-15T00:39:01.717Z,91.24
2022-11-15T00:40:01.631Z,91.29
2022-11-15T00:41:05.017Z,91.21
2022-11-15T00:42:02.628Z,91.14
2022-11-15T00:43:01.640Z,90.95
2022-11-15T00:44:01.577Z,90.81
2022-11-15T00:45:01.661Z,90.83
2022-11-15T00:46:01.555Z,90.93
2022-11-15T00:47:01.560Z,90.91
2022-11-15T00:48:01.551Z,90.91
2022-11-15T00:49:01.580Z,91.04
2022-11-15T00:50:01.505Z,91.11
2022-11-15T00:51:01.590Z,90.97
2022-11-15T00:52:01.471Z,90.87
2022-11-15T00:53:01.512Z,90.85
2022-11-15T00:54:01.479Z,90.95
2022-11-15T00:55:01.519Z,91.08
2022-11-15T00:56:01.434Z,91.11
2022-11-15T00:57:01.431Z,91.02
2022-11-15T00:58:01.391Z,91.04
2022-11-15T00:59:01.452Z,91.09
2022-11-15T01:00:01.399Z,91.18
2022-11-15T01:01:01.532Z,91.03
2022-11-15T01:02:01.341Z,91.05
2022-11-15T01:03:02.405Z,91.05
2022-11-15T01:04:01.819Z,91.08
2022-11-15T01:05:01.382Z,91.11
2022-11-15T01:06:01.324Z,91.14
2022-11-15T01:07:01.330Z,91.13
2022-11-15T01:08:01.259Z,91.07
2022-11-15T01:09:01.309Z,91.01
2022-11-15T01:10:01.231Z,90.93
2022-11-15T01:11:01.329Z,90.98
2022-11-15T01:12:01.231Z,90.96
2022-11-15T01:13:01.238Z,90.88
2022-11-15T01:14:01.181Z,90.94
2022-11-15T01:15:01.255Z,91.08
2022-11-15T01:16:01.154Z,91.11
2022-11-15T01:17:02.191Z,91.14
2022-11-15T01:18:01.139Z,91.15
2022-11-15T01:19:01.179Z,91.14
2022-11-15T01:20:01.097Z,91.00
2022-11-15T01:21:01.197Z,90.85
2022-11-15T01:22:01.070Z,90.79
2022-11-15T01:23:01.113Z,90.81
2022-11-15T01:24:01.078Z,90.83
2022-11-15T01:25:01.119Z,90.67
2022-11-15T01:26:01.020Z,90.67
2022-11-15T01:27:03.137Z,90.54
2022-11-15T01:28:01.007Z,90.56
2022-11-15T01:29:01.046Z,90.52
2022-11-15T01:30:01.007Z,90.63
2022-11-15T01:31:01.072Z,90.82
2022-11-15T01:32:00.942Z,90.90
2022-11-15T01:33:00.975Z,90.95
2022-11-15T01:34:00.916Z,90.98
2022-11-15T01:35:01.003Z,91.10
2022-11-15T01:36:00.918Z,91.11
2022-11-15T01:37:00.905Z,91.09
2022-11-15T01:38:00.859Z,91.11
2022-11-15T01:39:00.918Z,91.25
2022-11-15T01:40:01.119Z,91.25
2022-11-15T01:41:01.857Z,91.18
2022-11-15T01:42:00.837Z,91.07
2022-11-15T01:43:00.846Z,91.02
2022-11-15T01:44:00.779Z,90.96
2022-11-15T01:45:00.856Z,90.92
2022-11-15T01:46:00.758Z,90.90
2022-11-15T01:47:00.767Z,90.79
2022-11-15T01:48:00.774Z,90.77
2022-11-15T01:49:00.788Z,90.94
2022-11-15T01:50:00.706Z,90.91
2022-11-15T01:51:00.796Z,90.94
2022-11-15T01:52:00.676Z,90.89
2022-11-15T01:53:00.708Z,91.03
2022-11-15T01:54:00.686Z,91.07
2022-11-15T01:55:00.726Z,90.98
2022-11-15T01:56:00.627Z,90.81
2022-11-15T01:57:00.638Z,90.57
2022-11-15T01:58:00.600Z,90.51
2022-11-15T01:59:00.647Z,90.71
2022-11-15T02:00:00.607Z,90.81
2022-11-15T02:01:00.849Z,90.97
2022-11-15T02:02:00.545Z,91.11
2022-11-15T02:03:01.608Z,91.26
2022-11-15T02:04:00.520Z,91.42
2022-11-15T02:05:21.663Z,91.37
2022-11-15T02:06:00.495Z,91.32
2022-11-15T02:07:00.607Z,91.34
2022-11-15T02:08:00.467Z,91.43
2022-11-15T02:09:00.600Z,91.45
2022-11-15T02:10:00.442Z,91.46
2022-11-15T02:11:03.868Z,91.41
2022-11-15T02:12:00.414Z,91.34
2022-11-15T02:13:00.466Z,91.29
2022-11-15T02:14:00.384Z,91.37
2022-11-15T02:15:00.496Z,91.28
2022-11-15T02:16:03.039Z,91.10
2022-11-15T02:17:00.484Z,90.83
2022-11-15T02:18:00.335Z,90.81
2022-11-15T02:19:00.471Z,90.82
2022-11-15T02:20:00.307Z,90.39
2022-11-15T02:21:00.506Z,90.36
2022-11-15T02:22:00.282Z,90.34
2022-11-15T02:23:00.395Z,90.38
2022-11-15T02:24:00.261Z,90.41
2022-11-15T02:25:01.404Z,90.40
2022-11-15T02:26:00.228Z,90.47
2022-11-15T02:27:00.307Z,90.48
2022-11-15T02:28:00.203Z,90.33
2022-11-15T02:29:01.345Z,90.38
2022-11-15T02:30:00.185Z,90.42
2022-11-15T02:31:01.195Z,90.57
2022-11-15T02:32:00.144Z,90.58
2022-11-15T02:33:00.225Z,90.61
2022-11-15T02:34:00.123Z,90.60
2022-11-15T02:35:00.312Z,90.51
2022-11-15T02:36:00.093Z,90.69
2022-11-15T02:37:00.185Z,90.75
2022-11-15T02:38:00.074Z,90.72
2022-11-15T02:39:00.224Z,90.69
2022-11-15T02:40:00.055Z,90.77
2022-11-15T02:41:00.113Z,90.73
2022-11-15T02:42:00.015Z,90.99
2022-11-15T02:43:04.387Z,91.16
2022-11-15T02:44:00.994Z,91.23
2022-11-15T02:45:00.133Z,91.29
2022-11-15T02:45:59.965Z,91.35
2022-11-15T02:47:01.145Z,91.41
2022-11-15T02:47:59.945Z,91.43
2022-11-15T02:49:01.022Z,91.32
2022-11-15T02:49:59.906Z,91.27
2022-11-15T02:51:00.033Z,91.29
2022-11-15T02:51:59.893Z,91.23
2022-11-15T02:53:03.217Z,91.12
2022-11-15T02:53:59.863Z,91.24
2022-11-15T02:55:00.001Z,91.28
2022-11-15T02:55:59.833Z,91.17
2022-11-15T02:56:59.944Z,90.97
2022-11-15T02:57:59.811Z,90.92
2022-11-15T02:58:59.921Z,91.00
2022-11-15T02:59:59.782Z,91.01
2022-11-15T03:00:59.952Z,91.08
2022-11-15T03:01:59.752Z,91.16
2022-11-15T03:03:00.870Z,91.32
2022-11-15T03:03:59.730Z,91.31
2022-11-15T03:04:59.940Z,91.18
2022-11-15T03:05:59.711Z,91.17
2022-11-15T03:06:59.862Z,91.40
2022-11-15T03:08:02.543Z,91.54
2022-11-15T03:08:59.754Z,91.71
2022-11-15T03:09:59.644Z,91.81
2022-11-15T03:10:59.740Z,91.90
2022-11-15T03:11:59.628Z,91.92
2022-11-15T03:12:59.720Z,91.89
2022-11-15T03:13:59.603Z,91.95
2022-11-15T03:14:59.768Z,91.91
2022-11-15T03:15:59.573Z,91.89
2022-11-15T03:16:59.651Z,91.94
2022-11-15T03:17:59.551Z,91.94
2022-11-15T03:18:59.631Z,92.04
2022-11-15T03:19:59.510Z,92.07
2022-11-15T03:20:59.669Z,92.16
2022-11-15T03:21:59.491Z,92.04
2022-11-15T03:22:59.651Z,92.01
2022-11-15T03:23:59.470Z,92.12
2022-11-15T03:25:20.618Z,92.23
2022-11-15T03:25:59.435Z,92.16
2022-11-15T03:26:59.468Z,92.17
2022-11-15T03:27:59.413Z,92.29
2022-11-15T03:29:02.740Z,92.35
2022-11-15T03:29:59.389Z,92.27
2022-11-15T03:31:00.399Z,92.24
2022-11-15T03:31:59.358Z,92.28
2022-11-15T03:32:59.484Z,92.35
2022-11-15T03:33:59.330Z,92.44
2022-11-15T03:35:02.738Z,92.56
2022-11-15T03:35:59.336Z,92.61
2022-11-15T03:36:59.341Z,92.65
2022-11-15T03:37:59.349Z,92.66
2022-11-15T03:38:59.395Z,92.79
2022-11-15T03:39:59.289Z,92.85
2022-11-15T03:42:08.596Z,92.61
2022-11-15T03:43:08.487Z,92.62
2022-11-15T03:44:08.639Z,92.81
2022-11-15T03:45:08.490Z,92.89
2022-11-15T03:46:08.568Z,92.84
2022-11-15T03:47:08.438Z,92.80
2022-11-15T03:49:18.502Z,92.59
2022-11-15T03:50:17.391Z,92.60
2022-11-15T03:51:17.511Z,92.79
2022-11-15T03:52:17.341Z,92.85
2022-11-15T03:53:17.442Z,92.79
2022-11-15T03:54:17.311Z,92.76
2022-11-15T03:55:17.375Z,92.64
2022-11-15T03:56:17.305Z,92.60
2022-11-15T03:57:17.412Z,92.65
2022-11-15T03:58:17.257Z,92.58
2022-11-15T03:59:19.449Z,92.53
2022-11-15T04:00:17.238Z,92.53
2022-11-15T04:01:17.494Z,92.58
2022-11-15T04:02:17.241Z,92.58
2022-11-15T04:03:38.300Z,92.64
2022-11-15T04:04:17.240Z,92.65
2022-11-15T04:06:28.729Z,92.31
2022-11-15T04:07:26.636Z,92.29
2022-11-15T04:08:27.714Z,92.51
2022-11-15T04:09:26.497Z,92.49
2022-11-15T04:10:47.687Z,92.49
2022-11-15T04:11:26.476Z,92.45
2022-11-15T04:12:27.565Z,92.53
2022-11-15T04:13:26.473Z,92.60
2022-11-15T04:14:27.595Z,92.66
2022-11-15T04:15:26.426Z,92.55
2022-11-15T04:17:37.327Z,92.41
2022-11-15T04:18:37.246Z,92.41
2022-11-15T04:19:37.360Z,92.60
2022-11-15T04:20:37.197Z,92.64
2022-11-15T04:21:37.298Z,92.63
2022-11-15T04:22:37.177Z,92.70
2022-11-15T04:23:37.329Z,92.73
2022-11-15T04:24:37.167Z,92.79
2022-11-15T04:25:37.269Z,92.77
2022-11-15T04:26:37.120Z,92.88
2022-11-15T04:27:37.197Z,92.92
2022-11-15T04:28:37.091Z,92.95
2022-11-15T04:29:37.239Z,92.99
2022-11-15T04:30:37.098Z,92.94
2022-11-15T04:31:38.218Z,92.81
2022-11-15T04:32:37.045Z,92.78
2022-11-15T04:33:37.107Z,92.80
2022-11-15T04:34:37.007Z,92.84
2022-11-15T04:35:37.166Z,92.88
2022-11-15T04:36:37.019Z,92.86
2022-11-15T04:37:37.076Z,92.85
2022-11-15T04:38:36.961Z,92.84
2022-11-15T04:40:00.085Z,92.77
2022-11-15T04:40:36.937Z,92.77
2022-11-15T04:41:38.075Z,92.73
2022-11-15T04:42:36.936Z,92.76
2022-11-15T04:43:37.004Z,92.76
2022-11-15T04:44:36.876Z,92.80
2022-11-15T04:45:37.034Z,92.84
2022-11-15T04:46:36.847Z,92.88
2022-11-15T04:47:36.958Z,92.85
2022-11-15T04:48:36.867Z,92.87
2022-11-15T04:49:36.999Z,92.89
2022-11-15T04:50:36.797Z,92.97
2022-11-15T04:51:39.028Z,93.10
2022-11-15T04:52:36.776Z,93.11
2022-11-15T04:53:36.864Z,93.07
2022-11-15T04:54:36.777Z,93.05
2022-11-15T04:55:37.817Z,93.01
2022-11-15T04:56:36.716Z,92.98
2022-11-15T04:57:36.827Z,92.91
2022-11-15T04:58:36.705Z,92.95
2022-11-15T04:59:37.893Z,92.97
2022-11-15T05:00:36.705Z,93.06
2022-11-15T05:01:39.649Z,93.12
2022-11-15T05:02:37.642Z,93.10
2022-11-15T05:03:36.736Z,93.07
2022-11-15T05:04:36.615Z,93.09
2022-11-15T05:05:36.774Z,93.17
2022-11-15T05:06:36.605Z,93.24
2022-11-15T05:07:36.754Z,93.25
2022-11-15T05:08:36.564Z,93.12
2022-11-15T05:09:36.749Z,93.07
2022-11-15T05:10:36.535Z,93.07
2022-11-15T05:11:59.653Z,93.05
2022-11-15T05:12:36.513Z,93.07
2022-11-15T05:13:36.493Z,93.07
2022-11-15T05:14:57.664Z,92.96
2022-11-15T05:15:36.474Z,92.98
2022-11-15T05:16:37.532Z,92.98
2022-11-15T05:17:36.475Z,93.01
2022-11-15T05:18:36.554Z,92.86
2022-11-15T05:19:36.415Z,92.80
2022-11-15T05:20:37.519Z,92.91
2022-11-15T05:21:36.393Z,92.94
2022-11-15T05:22:36.521Z,92.95
2022-11-15T05:23:36.391Z,92.88
2022-11-15T05:24:36.456Z,92.94
2022-11-15T05:25:36.345Z,92.91
2022-11-15T05:26:36.383Z,92.94
2022-11-15T05:27:36.312Z,92.96
2022-11-15T05:28:37.569Z,92.92
2022-11-15T05:29:36.301Z,92.91
2022-11-15T05:30:36.462Z,92.95
2022-11-15T05:31:36.259Z,92.95
2022-11-15T05:32:36.404Z,92.88
2022-11-15T05:33:36.240Z,92.88
2022-11-15T05:34:38.324Z,92.94
2022-11-15T05:35:36.231Z,92.94
2022-11-15T05:36:36.223Z,92.98
2022-11-15T05:37:36.191Z,93.06
2022-11-15T05:38:36.240Z,93.08
2022-11-15T05:39:36.160Z,93.03
2022-11-15T05:40:36.252Z,92.96
2022-11-15T05:41:36.162Z,92.79
2022-11-15T05:42:36.166Z,92.59
2022-11-15T05:43:36.104Z,92.45
2022-11-15T05:44:36.180Z,92.43
2022-11-15T05:45:36.091Z,92.56
2022-11-15T05:46:36.093Z,92.74
2022-11-15T05:47:36.087Z,92.86
2022-11-15T05:48:36.101Z,92.85
2022-11-15T05:49:36.027Z,92.77
2022-11-15T05:50:36.120Z,92.72
2022-11-15T05:51:35.993Z,92.77
2022-11-15T05:52:36.031Z,92.89
2022-11-15T05:53:36.002Z,92.89
2022-11-15T05:54:36.050Z,92.92
2022-11-15T05:55:35.952Z,92.92
2022-11-15T05:56:35.968Z,92.89
2022-11-15T05:57:35.922Z,92.88
2022-11-15T05:58:35.979Z,92.94
2022-11-15T05:59:35.919Z,92.98
2022-11-15T06:00:56.987Z,92.95
2022-11-15T06:01:35.869Z,92.97
2022-11-15T06:02:36.964Z,92.99
2022-11-15T06:03:35.851Z,93.06
2022-11-15T06:04:36.080Z,93.11
2022-11-15T06:05:36.285Z,92.99
2022-11-15T06:06:38.274Z,93.01
2022-11-15T06:07:36.139Z,93.04
2022-11-15T06:08:36.214Z,92.93
2022-11-15T06:09:36.162Z,92.88
2022-11-15T06:10:36.262Z,92.82
2022-11-15T06:11:35.821Z,92.78
2022-11-15T06:12:35.786Z,92.69
2022-11-15T06:13:35.787Z,92.56
2022-11-15T06:14:36.015Z,92.44
2022-11-15T06:15:35.716Z,92.50
2022-11-15T06:16:35.709Z,92.42
2022-11-15T06:17:35.861Z,92.46
2022-11-15T06:18:37.823Z,92.48
2022-11-15T06:19:35.645Z,92.52
2022-11-15T06:20:36.679Z,92.57
2022-11-15T06:21:36.028Z,92.56
2022-11-15T06:22:35.944Z,92.50
2022-11-15T06:23:36.053Z,92.50
2022-11-15T06:24:35.874Z,92.53
2022-11-15T06:25:35.968Z,92.48
2022-11-15T06:26:35.981Z,92.44
2022-11-15T06:27:35.949Z,92.37
2022-11-15T06:28:35.576Z,92.42
2022-11-15T06:29:35.538Z,92.45
2022-11-15T06:30:36.519Z,92.40
2022-11-15T06:31:35.476Z,92.40
2022-11-15T06:32:35.511Z,92.52
2022-11-15T06:33:35.553Z,92.61
2022-11-15T06:34:35.519Z,92.63
2022-11-15T06:35:35.458Z,92.64
2022-11-15T06:36:35.429Z,92.53
2022-11-15T06:37:35.397Z,92.51
2022-11-15T06:38:36.611Z,92.43
2022-11-15T06:39:35.378Z,92.28
2022-11-15T06:40:35.457Z,92.28
2022-11-15T06:41:35.377Z,92.26
2022-11-15T06:42:35.376Z,92.28
2022-11-15T06:43:35.328Z,92.36
2022-11-15T06:44:35.389Z,92.36
2022-11-15T06:45:35.307Z,92.39
2022-11-15T06:46:37.399Z,92.42
2022-11-15T06:47:35.328Z,92.50
2022-11-15T06:48:35.349Z,92.47
2022-11-15T06:49:35.239Z,92.46
2022-11-15T06:50:35.348Z,92.44
2022-11-15T06:51:35.220Z,92.37
2022-11-15T06:52:35.240Z,92.18
2022-11-15T06:53:35.476Z,92.16
2022-11-15T06:54:35.622Z,92.13
2022-11-15T06:55:35.593Z,92.15
2022-11-15T06:56:35.485Z,92.03
2022-11-15T06:57:35.138Z,92.02
2022-11-15T06:58:35.186Z,92.13
2022-11-15T06:59:39.277Z,92.25
2022-11-15T07:00:36.098Z,92.28
2022-11-15T07:01:35.181Z,92.30
2022-11-15T07:02:35.069Z,92.31
2022-11-15T07:03:35.328Z,92.33
2022-11-15T07:04:35.057Z,92.33
2022-11-15T07:05:35.089Z,92.15
2022-11-15T07:06:35.028Z,92.07
2022-11-15T07:07:35.113Z,92.13
2022-11-15T07:08:35.038Z,92.27
2022-11-15T07:09:35.379Z,92.33
2022-11-15T07:10:34.969Z,92.40
2022-11-15T07:11:35.027Z,92.45
2022-11-15T07:12:34.937Z,92.55
2022-11-15T07:13:35.610Z,92.53
2022-11-15T07:14:34.914Z,92.38
2022-11-15T07:15:35.005Z,92.27
2022-11-15T07:16:34.890Z,92.37
2022-11-15T07:17:34.975Z,92.29
2022-11-15T07:18:34.864Z,91.94
2022-11-15T07:19:34.925Z,91.70
2022-11-15T07:20:34.837Z,91.62
2022-11-15T07:21:34.841Z,91.64
2022-11-15T07:22:34.805Z,91.77
2022-11-15T07:23:35.034Z,91.85
2022-11-15T07:24:34.785Z,91.83
2022-11-15T07:25:34.876Z,91.87
2022-11-15T07:26:34.769Z,91.82
2022-11-15T07:27:34.788Z,91.81
2022-11-15T07:28:34.725Z,91.80
2022-11-15T07:29:34.856Z,91.82
2022-11-15T07:30:34.709Z,91.99
2022-11-15T07:31:34.705Z,92.08
2022-11-15T07:32:34.678Z,92.11
2022-11-15T07:33:35.032Z,92.00
2022-11-15T07:34:34.679Z,91.87
2022-11-15T07:35:34.688Z,91.86
2022-11-15T07:36:34.627Z,92.00
2022-11-15T07:37:34.645Z,92.00
2022-11-15T07:38:39.422Z,91.93
2022-11-15T07:39:35.586Z,91.81
2022-11-15T07:40:34.664Z,91.91
2022-11-15T07:41:34.588Z,92.03
2022-11-15T07:42:34.585Z,92.10
2022-11-15T07:43:34.705Z,92.10
2022-11-15T07:44:34.600Z,92.17
2022-11-15T07:45:34.514Z,92.20
2022-11-15T07:46:34.614Z,92.14
2022-11-15T07:47:34.524Z,92.21
2022-11-15T07:48:44.015Z,92.35
2022-11-15T07:49:35.454Z,92.42
2022-11-15T07:50:34.535Z,92.54
2022-11-15T07:51:34.424Z,92.64
2022-11-15T07:52:34.452Z,92.69
2022-11-15T07:53:34.728Z,92.50
2022-11-15T07:54:34.459Z,92.31
2022-11-15T07:55:34.382Z,92.38
2022-11-15T07:56:34.475Z,92.43
2022-11-15T07:57:34.347Z,92.34
2022-11-15T07:58:34.395Z,92.31
2022-11-15T07:59:34.354Z,92.20
2022-11-15T08:00:34.404Z,92.04
2022-11-15T08:01:34.359Z,91.80
2022-11-15T08:02:34.436Z,91.76
2022-11-15T08:03:34.673Z,91.96
2022-11-15T08:04:34.327Z,92.16
2022-11-15T08:05:34.267Z,92.08
2022-11-15T08:06:34.247Z,92.02
2022-11-15T08:07:34.242Z,92.16
2022-11-15T08:08:34.254Z,92.28
2022-11-15T08:09:34.197Z,92.17
2022-11-15T08:10:40.300Z,92.09
2022-11-15T08:11:35.203Z,92.06
2022-11-15T08:12:34.216Z,91.77
2022-11-15T08:13:34.626Z,91.58
2022-11-15T08:14:34.200Z,91.73
2022-11-15T08:15:34.113Z,91.73
2022-11-15T08:16:34.220Z,91.83
2022-11-15T08:17:34.112Z,91.94
2022-11-15T08:18:36.222Z,92.11
2022-11-15T08:19:34.065Z,92.17
2022-11-15T08:20:34.142Z,91.96
2022-11-15T08:21:34.033Z,91.96
2022-11-15T08:22:34.056Z,92.03
2022-11-15T08:23:34.306Z,91.87
2022-11-15T08:24:34.064Z,91.62
2022-11-15T08:25:33.973Z,91.75
2022-11-15T08:26:35.003Z,91.93
2022-11-15T08:27:34.004Z,91.95
2022-11-15T08:28:33.991Z,91.86
2022-11-15T08:29:33.959Z,91.81
2022-11-15T08:30:35.033Z,91.95
2022-11-15T08:31:33.910Z,92.00
2022-11-15T08:32:33.944Z,91.82
2022-11-15T08:33:34.191Z,91.47
2022-11-15T08:34:33.932Z,91.41
2022-11-15T08:35:33.871Z,91.46
2022-11-15T08:36:43.069Z,91.46
2022-11-15T08:37:34.814Z,91.36
2022-11-15T08:38:34.232Z,91.07
2022-11-15T08:39:33.802Z,91.09
2022-11-15T08:40:33.882Z,91.15
2022-11-15T08:41:33.802Z,91.23
2022-11-15T08:42:33.796Z,91.22
2022-11-15T08:43:33.991Z,91.38
2022-11-15T08:44:33.805Z,91.52
2022-11-15T08:45:33.723Z,91.46
2022-11-15T08:46:33.821Z,91.51
2022-11-15T08:47:33.712Z,91.63
2022-11-15T08:48:33.988Z,91.64
2022-11-15T08:49:33.671Z,91.74
2022-11-15T08:50:33.755Z,91.67
2022-11-15T08:51:33.631Z,91.69
2022-11-15T08:52:33.669Z,91.77
2022-11-15T08:53:33.631Z,91.91
2022-11-15T08:54:33.693Z,91.81
2022-11-15T08:55:33.581Z,91.71
2022-11-15T08:56:34.614Z,91.72
2022-11-15T08:57:33.561Z,91.64
2022-11-15T08:58:33.964Z,91.65
2022-11-15T08:59:33.554Z,91.84
2022-11-15T09:00:33.610Z,91.93
2022-11-15T09:01:33.628Z,92.03
2022-11-15T09:02:33.528Z,91.88
2022-11-15T09:03:33.479Z,91.79
2022-11-15T09:04:36.599Z,91.95
2022-11-15T09:05:33.482Z,91.91
2022-11-15T09:06:33.590Z,91.94
2022-11-15T09:07:33.480Z,92.00
2022-11-15T09:08:47.020Z,92.16
2022-11-15T09:09:34.402Z,92.14
2022-11-15T09:10:33.494Z,92.06
2022-11-15T09:11:33.399Z,92.00
2022-11-15T09:12:33.390Z,92.01
2022-11-15T09:13:33.361Z,92.08
2022-11-15T09:14:33.410Z,92.14
2022-11-15T09:15:33.321Z,91.97
2022-11-15T09:16:33.420Z,91.83
2022-11-15T09:17:33.321Z,91.88
2022-11-15T09:18:33.654Z,91.83
2022-11-15T09:19:33.270Z,91.73
2022-11-15T09:20:33.350Z,91.76
2022-11-15T09:21:33.240Z,91.72
2022-11-15T09:22:33.259Z,91.72
2022-11-15T09:23:33.250Z,91.87
2022-11-15T09:24:33.283Z,91.96
2022-11-15T09:25:33.202Z,91.92
2022-11-15T09:26:33.293Z,91.66
2022-11-15T09:27:33.160Z,91.50
2022-11-15T09:28:33.659Z,91.40
2022-11-15T09:29:33.163Z,91.19
2022-11-15T09:30:33.218Z,91.14
2022-11-15T09:31:33.114Z,91.12
2022-11-15T09:32:37.972Z,91.16
2022-11-15T09:33:34.729Z,91.11
2022-11-15T09:34:35.149Z,91.07
2022-11-15T09:35:33.347Z,90.95
2022-11-15T09:36:40.437Z,90.92
2022-11-15T09:37:42.512Z,91.01
2022-11-15T09:38:38.472Z,91.05
2022-11-15T09:39:38.582Z,90.97
2022-11-15T09:40:44.666Z,91.10
2022-11-15T09:41:37.763Z,91.27
2022-11-15T09:42:34.551Z,91.35
2022-11-15T09:43:42.575Z,91.37
2022-11-15T09:44:40.398Z,91.60
2022-11-15T09:45:44.003Z,91.62
2022-11-15T09:46:34.946Z,91.72
2022-11-15T09:47:40.160Z,91.82
2022-11-15T09:48:40.681Z,91.94
2022-11-15T09:49:41.038Z,91.97
2022-11-15T09:50:35.619Z,91.96
2022-11-15T09:51:46.431Z,91.69
2022-11-15T09:52:39.163Z,91.56
2022-11-15T09:54:53.940Z,91.79
2022-11-15T09:55:35.375Z,91.43
2022-11-15T09:56:35.229Z,91.40
2022-11-15T09:58:03.103Z,91.62
2022-11-15T09:58:35.185Z,91.77
2022-11-15T09:59:47.114Z,91.93
2022-11-15T10:02:11.367Z,91.53
2022-11-15T10:02:50.052Z,91.52
2022-11-15T10:03:51.587Z,91.69
2022-11-15T10:04:55.461Z,91.41
2022-11-15T10:05:50.399Z,91.37
2022-11-15T10:06:50.295Z,91.44
2022-11-15T10:07:50.424Z,91.51
2022-11-15T10:08:49.998Z,91.48
2022-11-15T10:09:49.967Z,91.50
2022-11-15T10:10:50.027Z,91.67
2022-11-15T10:11:50.014Z,91.60
2022-11-15T10:12:49.919Z,91.58
2022-11-15T10:13:49.889Z,91.61
2022-11-15T10:14:54.439Z,91.67
2022-11-15T10:15:49.860Z,91.65
2022-11-15T10:16:49.950Z,91.63
2022-11-15T10:17:49.868Z,91.65
2022-11-15T10:18:49.867Z,91.71
2022-11-15T10:19:49.817Z,91.64
2022-11-15T10:20:49.869Z,91.44
2022-11-15T10:21:49.779Z,91.19
2022-11-15T10:22:49.788Z,91.11
2022-11-15T10:23:49.887Z,91.08
2022-11-15T10:24:49.803Z,90.98
2022-11-15T10:25:49.728Z,90.86
2022-11-15T10:26:50.744Z,90.83
2022-11-15T10:27:49.714Z,90.85
2022-11-15T10:28:49.745Z,90.87
2022-11-15T10:29:49.697Z,91.06
2022-11-15T10:30:50.770Z,91.07
2022-11-15T10:31:49.648Z,91.10
2022-11-15T10:32:49.659Z,91.23
2022-11-15T10:33:49.625Z,91.23
2022-11-15T10:34:49.670Z,91.25
2022-11-15T10:35:49.607Z,91.26
2022-11-15T10:36:50.555Z,91.32
2022-11-15T10:37:49.568Z,91.21
2022-11-15T10:38:49.604Z,91.00
2022-11-15T10:39:49.547Z,90.83
2022-11-15T10:40:49.607Z,90.99
2022-11-15T10:41:49.528Z,91.19
2022-11-15T10:42:49.527Z,91.30
2022-11-15T10:43:49.489Z,91.34
2022-11-15T10:44:49.538Z,91.33
2022-11-15T10:45:49.458Z,91.03
2022-11-15T10:46:49.547Z,90.93
2022-11-15T10:47:49.448Z,91.12
2022-11-15T10:48:49.465Z,91.42
2022-11-15T10:49:49.406Z,91.58
2022-11-15T10:50:49.476Z,91.77
2022-11-15T10:51:49.378Z,91.81
2022-11-15T10:52:49.387Z,91.61
2022-11-15T10:53:49.369Z,91.27
2022-11-15T10:54:49.412Z,91.07
2022-11-15T10:55:49.327Z,91.05
2022-11-15T10:56:49.427Z,91.23
2022-11-15T10:57:49.299Z,91.26
2022-11-15T10:58:49.455Z,91.24
2022-11-15T10:59:49.287Z,91.25
2022-11-15T11:00:49.347Z,91.22
2022-11-15T11:01:49.297Z,91.16
2022-11-15T11:02:49.364Z,91.14
2022-11-15T11:03:49.224Z,91.22
2022-11-15T11:04:49.275Z,91.31
2022-11-15T11:05:49.236Z,91.22
2022-11-15T11:06:49.334Z,91.28
2022-11-15T11:07:49.168Z,91.19
2022-11-15T11:08:49.197Z,91.42
2022-11-15T11:09:49.144Z,91.41
2022-11-15T11:10:51.949Z,91.27
2022-11-15T11:11:49.157Z,91.22
2022-11-15T11:12:51.220Z,91.18
2022-11-15T11:13:49.086Z,91.19
2022-11-15T11:14:49.138Z,91.08
2022-11-15T11:15:49.064Z,90.91
2022-11-15T11:16:49.157Z,90.74
2022-11-15T11:17:49.057Z,90.83
2022-11-15T11:18:49.786Z,90.88
2022-11-15T11:19:49.013Z,90.87
2022-11-15T11:20:49.076Z,90.64
2022-11-15T11:21:48.986Z,90.64
2022-11-15T11:22:48.996Z,90.73
2022-11-15T11:23:48.968Z,90.58
2022-11-15T11:24:49.038Z,90.63
2022-11-15T11:25:49.127Z,90.72
2022-11-15T11:26:55.717Z,90.80
2022-11-15T11:27:49.903Z,90.75
2022-11-15T11:28:48.936Z,90.94
2022-11-15T11:29:49.058Z,90.76
2022-11-15T11:30:48.976Z,90.91
2022-11-15T11:31:49.724Z,90.90
2022-11-15T11:32:53.914Z,91.07
2022-11-15T11:33:49.954Z,91.30
2022-11-15T11:34:49.925Z,91.43
2022-11-15T11:35:48.863Z,91.41
2022-11-15T11:36:49.088Z,91.29
2022-11-15T11:37:48.783Z,91.16
2022-11-15T11:38:48.935Z,90.92
2022-11-15T11:39:48.991Z,90.78
2022-11-15T11:40:48.845Z,90.85
2022-11-15T11:41:48.884Z,91.02
2022-11-15T11:42:48.951Z,91.11
2022-11-15T11:43:48.875Z,91.04
2022-11-15T11:44:48.795Z,91.06
2022-11-15T11:45:48.675Z,90.96
2022-11-15T11:46:48.957Z,90.69
2022-11-15T11:47:48.667Z,90.64
2022-11-15T11:48:48.676Z,90.65
2022-11-15T11:49:48.614Z,90.57
2022-11-15T11:50:48.685Z,90.48
2022-11-15T11:51:48.586Z,90.27
2022-11-15T11:52:48.807Z,90.30
2022-11-15T11:53:48.665Z,90.41
2022-11-15T11:54:48.614Z,90.48
2022-11-15T11:55:48.543Z,90.46
2022-11-15T11:57:10.814Z,90.62
2022-11-15T11:57:48.523Z,90.76
2022-11-15T11:58:48.653Z,90.58
2022-11-15T11:59:48.593Z,90.42
2022-11-15T12:00:48.553Z,90.41
2022-11-15T12:01:48.846Z,90.33
2022-11-15T12:02:49.685Z,90.55
2022-11-15T12:03:48.436Z,90.55
2022-11-15T12:04:49.505Z,90.50
2022-11-15T12:05:48.457Z,90.59
2022-11-15T12:06:48.664Z,90.38
2022-11-15T12:07:48.374Z,90.35
2022-11-15T12:08:48.460Z,90.42
2022-11-15T12:09:48.436Z,90.32
2022-11-15T12:10:49.560Z,90.34
2022-11-15T12:11:48.423Z,90.23
2022-11-15T12:12:49.353Z,90.13
2022-11-15T12:13:48.293Z,90.14
2022-11-15T12:14:48.351Z,90.17
2022-11-15T12:15:48.273Z,90.14
2022-11-15T12:16:48.362Z,89.93
2022-11-15T12:17:48.268Z,89.93
2022-11-15T12:18:48.272Z,89.88
2022-11-15T12:19:48.214Z,89.90
2022-11-15T12:20:48.292Z,90.04
2022-11-15T12:21:48.196Z,90.07
2022-11-15T12:22:48.215Z,89.99
2022-11-15T12:23:48.194Z,89.99
2022-11-15T12:24:48.213Z,90.03
2022-11-15T12:25:48.143Z,89.94
2022-11-15T12:26:48.232Z,90.05
2022-11-15T12:27:48.111Z,90.10
2022-11-15T12:29:05.858Z,90.12
2022-11-15T12:29:49.112Z,89.90
2022-11-15T12:30:49.184Z,89.93
2022-11-15T12:31:48.061Z,89.74
2022-11-15T12:32:48.079Z,89.71
2022-11-15T12:33:48.044Z,89.63
2022-11-15T12:34:48.082Z,89.67
2022-11-15T12:35:48.031Z,89.76
2022-11-15T12:36:49.030Z,89.75
2022-11-15T12:37:47.982Z,89.75
2022-11-15T12:38:48.012Z,89.67
2022-11-15T12:39:47.952Z,89.81
2022-11-15T12:40:48.023Z,89.91
2022-11-15T12:41:47.952Z,90.00
2022-11-15T12:42:47.961Z,89.87
2022-11-15T12:43:47.892Z,89.87
2022-11-15T12:44:49.053Z,89.91
2022-11-15T12:45:47.875Z,90.01
2022-11-15T12:46:48.052Z,89.92
2022-11-15T12:47:47.872Z,89.74
2022-11-15T12:48:47.881Z,89.79
2022-11-15T12:49:47.822Z,89.88
2022-11-15T12:50:48.824Z,89.93
2022-11-15T12:51:47.781Z,89.96
2022-11-15T12:52:47.814Z,89.98
2022-11-15T12:53:47.792Z,89.89
2022-11-15T12:54:47.824Z,89.68
2022-11-15T12:55:47.734Z,89.73
2022-11-15T12:56:47.852Z,89.80
2022-11-15T12:57:47.720Z,89.61
2022-11-15T12:58:47.747Z,89.72